createdAt,value
2023-05-25T00:01:37.516Z,4.65
2023-05-25T00:04:04.571Z,3.80
2023-05-25T00:06:32.550Z,3.72
2023-05-25T00:08:59.120Z,3.80
2023-05-25T00:11:26.801Z,4.28
2023-05-25T00:13:53.686Z,3.50
2023-05-25T00:16:20.596Z,4.47
2023-05-25T00:18:48.724Z,4.32
2023-05-25T00:21:16.180Z,4.30
2023-05-25T00:23:43.149Z,4.05
2023-05-25T00:26:13.524Z,4.32
2023-05-25T00:28:40.020Z,4.30
2023-05-25T00:31:06.607Z,4.20
2023-05-25T00:33:33.164Z,4.07
2023-05-25T00:36:00.289Z,4.18
2023-05-25T00:38:26.768Z,4.45
2023-05-25T00:40:56.511Z,5.45
2023-05-25T00:43:23.359Z,5.13
2023-05-25T00:45:51.717Z,5.22
2023-05-25T00:48:18.931Z,4.47
2023-05-25T00:50:45.978Z,4.93
2023-05-25T00:53:13.718Z,4.32
2023-05-25T00:55:52.067Z,4.38
2023-05-25T00:58:22.060Z,4.70
2023-05-25T01:00:50.745Z,4.10
2023-05-25T01:03:21.821Z,5.22
2023-05-25T01:05:52.048Z,4.55
2023-05-25T01:08:21.245Z,4.63
2023-05-25T01:10:51.353Z,5.05
2023-05-25T01:13:19.985Z,4.55
2023-05-25T01:15:47.958Z,5.35
2023-05-25T01:18:15.875Z,5.25
2023-05-25T01:21:13.296Z,4.63
2023-05-25T01:24:12.075Z,4.93
2023-05-25T01:26:48.840Z,5.55
2023-05-25T01:29:18.709Z,5.00
2023-05-25T01:31:47.249Z,5.53
2023-05-25T01:34:15.162Z,5.03
2023-05-25T01:36:41.699Z,5.80
2023-05-25T01:39:10.983Z,5.72
2023-05-25T01:41:38.343Z,5.95
2023-05-25T01:44:07.537Z,6.35
2023-05-25T01:46:38.596Z,6.53
2023-05-25T01:49:28.393Z,6.45
2023-05-25T01:52:12.829Z,5.85
2023-05-25T01:54:47.077Z,5.72
2023-05-25T01:57:16.925Z,6.63
2023-05-25T01:59:47.147Z,6.13
2023-05-25T02:02:24.034Z,5.60
2023-05-25T02:04:52.956Z,6.30
2023-05-25T02:07:19.458Z,5.88
2023-05-25T02:09:45.936Z,6.05
2023-05-25T02:12:12.481Z,6.40
2023-05-25T02:14:38.965Z,5.65
2023-05-25T02:17:05.586Z,5.88
2023-05-25T02:19:32.091Z,6.53
2023-05-25T02:21:58.709Z,6.38
2023-05-25T02:24:25.591Z,6.03
2023-05-25T02:26:53.040Z,5.90
2023-05-25T02:29:20.528Z,6.28
2023-05-25T02:31:47.357Z,5.75
2023-05-25T02:34:14.061Z,6.85
2023-05-25T02:36:43.343Z,7.18
2023-05-25T02:39:11.026Z,7.03
2023-05-25T02:41:38.774Z,6.70
2023-05-25T02:44:07.173Z,6.75
2023-05-25T02:46:34.191Z,6.35
2023-05-25T02:49:01.196Z,6.65
2023-05-25T02:51:30.203Z,6.10
2023-05-25T02:53:58.754Z,7.47
2023-05-25T02:56:27.531Z,6.53
2023-05-25T02:58:55.292Z,7.82
2023-05-25T03:01:31.824Z,6.68
2023-05-25T03:03:58.585Z,7.32
2023-05-25T03:06:26.565Z,6.75
2023-05-25T03:09:01.280Z,7.40
2023-05-25T03:11:28.470Z,7.15
2023-05-25T03:13:58.423Z,6.93
2023-05-25T03:16:25.991Z,7.63
2023-05-25T03:18:53.761Z,7.63
2023-05-25T03:21:22.342Z,7.03
2023-05-25T03:23:49.452Z,8.38
2023-05-25T03:26:17.555Z,7.95
2023-05-25T03:28:45.877Z,7.97
2023-05-25T03:31:12.669Z,7.65
2023-05-25T03:33:39.420Z,6.78
2023-05-25T03:36:09.478Z,8.07
2023-05-25T03:38:39.098Z,7.38
2023-05-25T03:41:05.855Z,8.25
2023-05-25T03:43:32.403Z,8.23
2023-05-25T03:45:58.976Z,7.25
2023-05-25T03:48:25.579Z,8.82
2023-05-25T03:50:52.273Z,7.50
2023-05-25T03:53:18.799Z,8.23
2023-05-25T03:55:45.510Z,8.00
2023-05-25T03:58:13.111Z,8.93
2023-05-25T04:00:39.560Z,8.25
2023-05-25T04:03:06.971Z,8.68
2023-05-25T04:05:33.669Z,8.02
2023-05-25T04:08:00.292Z,9.15
2023-05-25T04:10:27.064Z,8.13
2023-05-25T04:12:56.616Z,8.00
2023-05-25T04:15:23.417Z,8.77
2023-05-25T04:17:59.644Z,8.65
2023-05-25T04:20:26.373Z,8.88
2023-05-25T04:22:52.985Z,8.80
2023-05-25T04:25:22.109Z,9.18
2023-05-25T04:27:49.054Z,8.68
2023-05-25T04:30:28.195Z,9.00
2023-05-25T04:33:18.510Z,9.02
2023-05-25T04:36:00.672Z,9.52
2023-05-25T04:38:28.086Z,8.65
2023-05-25T04:40:54.574Z,8.90
2023-05-25T04:43:21.271Z,9.13
2023-05-25T04:45:48.075Z,8.95
2023-05-25T04:48:14.912Z,9.60
2023-05-25T04:50:41.839Z,7.38
2023-05-25T04:53:09.113Z,8.95
2023-05-25T04:55:35.840Z,8.50
2023-05-25T04:58:03.306Z,8.60
2023-05-25T05:00:29.876Z,8.13
2023-05-25T05:02:56.712Z,8.98
2023-05-25T05:05:23.409Z,9.57
2023-05-25T05:07:51.751Z,9.13
2023-05-25T05:10:20.584Z,10.23
2023-05-25T05:12:52.825Z,9.93
2023-05-25T05:15:19.278Z,9.43
2023-05-25T05:17:48.229Z,10.73
2023-05-25T05:20:14.990Z,10.32
2023-05-25T05:22:42.166Z,9.95
2023-05-25T05:25:09.151Z,10.65
2023-05-25T05:27:35.967Z,9.27
2023-05-25T05:30:09.104Z,10.85
2023-05-25T05:32:35.619Z,11.00
2023-05-25T05:35:02.373Z,11.90
2023-05-25T05:37:37.610Z,10.85
2023-05-25T05:40:04.676Z,10.65
2023-05-25T05:42:31.744Z,11.00
2023-05-25T05:44:58.546Z,11.73
2023-05-25T05:47:25.050Z,10.18
2023-05-25T05:49:51.608Z,11.02
2023-05-25T05:52:18.157Z,10.90
2023-05-25T05:54:44.706Z,10.73
2023-05-25T05:57:14.244Z,10.25
2023-05-25T05:59:41.058Z,10.05
2023-05-25T06:02:07.766Z,11.23
2023-05-25T06:04:34.316Z,10.95
2023-05-25T06:07:00.988Z,11.32
2023-05-25T06:09:27.787Z,10.52
2023-05-25T06:11:58.246Z,10.82
2023-05-25T06:14:26.769Z,11.13
2023-05-25T06:16:54.830Z,11.43
2023-05-25T06:19:21.415Z,10.18
2023-05-25T06:21:48.074Z,10.07
2023-05-25T06:24:15.247Z,10.68
2023-05-25T06:26:41.912Z,10.10
2023-05-25T06:29:08.452Z,10.55
2023-05-25T06:31:35.010Z,9.82
2023-05-25T06:34:01.965Z,10.10
2023-05-25T06:36:28.480Z,9.18
2023-05-25T06:38:55.246Z,9.85
2023-05-25T06:41:22.266Z,10.02
2023-05-25T06:43:48.906Z,9.30
2023-05-25T06:46:23.920Z,9.95
2023-05-25T06:48:51.339Z,9.57
2023-05-25T06:51:17.856Z,10.20
2023-05-25T06:53:44.560Z,10.50
2023-05-25T06:56:11.153Z,9.68
2023-05-25T06:58:37.692Z,10.07
2023-05-25T07:01:04.297Z,9.48
2023-05-25T07:03:30.970Z,9.60
2023-05-25T07:05:58.353Z,9.82
2023-05-25T07:08:24.825Z,9.32
2023-05-25T07:10:51.371Z,10.38
2023-05-25T07:13:17.887Z,8.73
2023-05-25T07:15:44.910Z,8.25
2023-05-25T07:18:12.623Z,9.07
2023-05-25T07:20:43.855Z,9.73
2023-05-25T07:23:13.957Z,8.73
2023-05-25T07:25:41.420Z,8.73
2023-05-25T07:28:08.673Z,9.30
2023-05-25T07:30:35.630Z,9.25
2023-05-25T07:33:02.142Z,9.05
2023-05-25T07:35:28.722Z,9.43
2023-05-25T07:38:02.564Z,8.70
2023-05-25T07:40:29.060Z,8.80
2023-05-25T07:42:55.553Z,8.40
2023-05-25T07:45:22.527Z,8.55
2023-05-25T07:47:49.272Z,7.90
2023-05-25T07:50:16.042Z,8.60
2023-05-25T07:52:42.702Z,7.45
2023-05-25T07:55:09.970Z,9.15
2023-05-25T07:57:36.645Z,8.82
2023-05-25T08:00:13.269Z,8.32
2023-05-25T08:02:39.912Z,8.57
2023-05-25T08:05:06.890Z,8.32
2023-05-25T08:07:33.741Z,8.70
2023-05-25T08:10:00.781Z,8.38
2023-05-25T08:12:42.950Z,8.10
2023-05-25T08:15:13.985Z,8.55
2023-05-25T08:17:41.688Z,8.68
2023-05-25T08:20:09.057Z,8.70
2023-05-25T08:22:36.088Z,9.15
2023-05-25T08:25:04.728Z,9.98
2023-05-25T08:27:32.918Z,8.13
2023-05-25T08:30:02.017Z,10.18
2023-05-25T08:32:28.534Z,8.18
2023-05-25T08:34:55.062Z,8.25
2023-05-25T08:37:22.621Z,8.48
2023-05-25T08:39:49.099Z,9.35
2023-05-25T08:42:15.681Z,8.88
2023-05-25T08:44:42.383Z,8.35
2023-05-25T08:47:09.214Z,9.07
2023-05-25T08:49:38.692Z,8.93
2023-05-25T08:52:09.418Z,8.90
2023-05-25T08:54:37.625Z,8.73
2023-05-25T08:57:17.174Z,8.73
2023-05-25T09:00:10.501Z,8.43
2023-05-25T09:02:51.419Z,10.05
2023-05-25T09:05:18.931Z,9.65
2023-05-25T09:07:46.643Z,8.68
2023-05-25T09:10:14.373Z,9.77
2023-05-25T09:12:42.378Z,9.32
2023-05-25T09:15:12.384Z,9.65
2023-05-25T09:17:39.997Z,9.40
2023-05-25T09:20:09.259Z,9.52
2023-05-25T09:22:36.109Z,9.68
2023-05-25T09:25:08.707Z,8.82
2023-05-25T09:27:39.647Z,9.30
2023-05-25T09:30:06.931Z,10.82
2023-05-25T09:32:33.702Z,10.13
2023-05-25T09:35:10.961Z,9.45
2023-05-25T09:37:38.520Z,9.80
2023-05-25T09:40:06.258Z,9.68
2023-05-25T09:42:36.935Z,9.90
2023-05-25T09:45:04.969Z,10.85
2023-05-25T09:47:31.573Z,10.45
2023-05-25T09:49:58.576Z,10.18
2023-05-25T09:52:25.931Z,9.88
2023-05-25T09:54:52.730Z,9.82
2023-05-25T09:57:20.504Z,9.32
2023-05-25T09:59:47.746Z,9.30
2023-05-25T10:02:15.345Z,9.93
2023-05-25T10:04:41.887Z,9.93
2023-05-25T10:07:08.660Z,9.50
2023-05-25T10:09:41.586Z,9.20
2023-05-25T10:12:08.837Z,10.00
2023-05-25T10:14:38.138Z,10.32
2023-05-25T10:17:07.026Z,9.68
2023-05-25T10:19:33.430Z,8.98
2023-05-25T10:22:08.840Z,9.25
2023-05-25T10:24:59.475Z,9.32
2023-05-25T10:27:41.151Z,7.35
2023-05-25T10:30:09.705Z,10.30
2023-05-25T10:32:37.546Z,10.18
2023-05-25T10:35:06.188Z,10.57
2023-05-25T10:37:34.027Z,9.00
2023-05-25T10:40:01.478Z,10.93
2023-05-25T10:42:29.529Z,9.18
2023-05-25T10:44:57.701Z,9.27
2023-05-25T10:47:24.559Z,9.65
2023-05-25T10:49:57.643Z,9.20
2023-05-25T10:52:29.601Z,9.35
2023-05-25T10:55:07.278Z,9.88
2023-05-25T10:57:33.887Z,9.15
2023-05-25T11:00:07.132Z,9.05
2023-05-25T11:02:54.995Z,9.95
2023-05-25T11:05:30.449Z,10.25
2023-05-25T11:08:02.062Z,9.85
2023-05-25T11:10:51.129Z,9.43
2023-05-25T11:13:37.025Z,9.07
2023-05-25T11:16:18.210Z,8.88
2023-05-25T11:18:57.919Z,8.32
2023-05-25T11:21:27.533Z,9.10
2023-05-25T11:23:59.403Z,8.95
2023-05-25T11:26:30.799Z,8.55
2023-05-25T11:29:00.844Z,8.32
2023-05-25T11:31:31.954Z,9.10
2023-05-25T11:34:01.279Z,8.70
2023-05-25T11:36:31.543Z,8.75
2023-05-25T11:39:06.639Z,9.32
2023-05-25T11:41:40.232Z,8.05
2023-05-25T11:44:07.829Z,8.65
2023-05-25T11:46:35.144Z,8.77
2023-05-25T11:49:01.754Z,8.70
2023-05-25T11:51:30.204Z,8.35
2023-05-25T11:53:57.147Z,8.45
2023-05-25T11:56:34.173Z,8.20
2023-05-25T11:59:01.895Z,7.90
2023-05-25T12:01:31.807Z,7.57
2023-05-25T12:03:58.649Z,8.60
2023-05-25T12:06:30.258Z,7.80
2023-05-25T12:08:57.731Z,8.77
2023-05-25T12:11:32.215Z,8.20
2023-05-25T12:13:59.983Z,8.90
2023-05-25T12:16:27.173Z,7.90
2023-05-25T12:18:54.840Z,7.78
2023-05-25T12:21:22.502Z,8.10
2023-05-25T12:23:50.288Z,7.40
2023-05-25T12:26:18.998Z,8.75
2023-05-25T12:29:05.956Z,7.78
2023-05-25T12:31:34.310Z,6.93
2023-05-25T12:34:12.158Z,7.28
2023-05-25T12:37:04.933Z,7.25
2023-05-25T12:39:31.365Z,7.45
2023-05-25T12:41:59.630Z,7.68
2023-05-25T12:44:31.241Z,7.80
2023-05-25T12:47:10.803Z,6.78
2023-05-25T12:49:37.700Z,7.15
2023-05-25T12:52:05.021Z,6.25
2023-05-25T12:54:46.181Z,7.45
2023-05-25T12:57:14.598Z,6.15
2023-05-25T12:59:43.359Z,6.85
2023-05-25T13:02:10.775Z,6.53
2023-05-25T13:04:39.065Z,7.22
2023-05-25T13:07:08.413Z,6.93
2023-05-25T13:09:35.222Z,6.72
2023-05-25T13:12:02.742Z,6.80
2023-05-25T13:14:29.983Z,6.50
2023-05-25T13:16:57.594Z,5.93
2023-05-25T13:19:25.883Z,6.72
2023-05-25T13:21:52.971Z,6.20
2023-05-25T13:24:19.725Z,5.53
2023-05-25T13:26:48.411Z,5.90
2023-05-25T13:31:44.185Z,5.43
2023-05-25T13:34:11.097Z,5.68
2023-05-25T13:36:37.634Z,4.95
2023-05-25T13:39:05.349Z,5.97
2023-05-25T13:41:31.909Z,5.38
2023-05-25T13:43:58.401Z,5.90
2023-05-25T13:46:34.046Z,5.40
2023-05-25T13:49:02.002Z,6.13
2023-05-25T13:51:28.484Z,5.78
2023-05-25T13:53:54.973Z,4.93
2023-05-25T13:56:22.330Z,5.50
2023-05-25T13:58:48.918Z,4.95
2023-05-25T14:01:15.649Z,5.50
2023-05-25T14:03:42.386Z,5.10
2023-05-25T14:06:09.441Z,5.15
2023-05-25T14:08:36.035Z,4.78
2023-05-25T14:11:02.989Z,5.47
2023-05-25T14:13:29.668Z,5.30
2023-05-25T14:15:56.272Z,5.47
2023-05-25T14:18:22.944Z,5.10
2023-05-25T14:20:49.582Z,4.80
2023-05-25T14:23:18.498Z,4.90
2023-05-25T14:25:46.942Z,5.10
2023-05-25T14:28:13.688Z,4.95
2023-05-25T14:30:40.162Z,5.70
2023-05-25T14:33:06.756Z,5.63
2023-05-25T14:35:33.256Z,5.07
2023-05-25T14:37:59.889Z,4.55
2023-05-25T14:40:26.488Z,5.03
2023-05-25T14:42:55.364Z,5.40
2023-05-25T14:45:21.973Z,5.63
2023-05-25T14:47:48.597Z,5.50
2023-05-25T14:50:15.674Z,6.30
2023-05-25T14:52:42.713Z,11.75
2023-05-25T14:55:09.618Z,8.00
2023-05-25T14:57:36.766Z,10.07
2023-05-25T15:00:04.113Z,22.73
2023-05-25T15:02:30.778Z,12.70
2023-05-25T15:04:57.447Z,6.20
2023-05-25T15:07:24.084Z,9.77
2023-05-25T15:09:50.671Z,4.85
2023-05-25T15:12:17.166Z,5.18
2023-05-25T15:14:43.642Z,4.65
2023-05-25T15:17:10.121Z,5.47
2023-05-25T15:19:37.282Z,11.05
2023-05-25T15:22:03.968Z,5.50
2023-05-25T15:24:30.464Z,7.75
2023-05-25T15:26:56.916Z,5.72
2023-05-25T15:29:23.572Z,5.85
2023-05-25T15:31:53.581Z,5.15
2023-05-25T15:34:20.582Z,4.93
2023-05-25T15:36:47.098Z,6.40
2023-05-25T15:39:15.322Z,5.50
2023-05-25T15:41:42.101Z,5.38
2023-05-25T15:44:12.352Z,5.03
2023-05-25T15:46:40.168Z,5.53
2023-05-25T15:49:11.135Z,5.72
2023-05-25T15:51:41.914Z,4.55
2023-05-25T15:54:11.178Z,5.28
2023-05-25T15:56:40.113Z,5.05
2023-05-25T15:59:06.705Z,4.13
2023-05-25T16:01:34.435Z,5.20
2023-05-25T16:04:01.324Z,5.57
2023-05-25T16:06:28.068Z,5.10
2023-05-25T16:08:54.700Z,5.15
2023-05-25T16:11:21.756Z,4.88
2023-05-25T16:13:48.183Z,4.93
2023-05-25T16:16:14.866Z,4.90
2023-05-25T16:18:41.601Z,5.05
2023-05-25T16:21:08.103Z,6.85
2023-05-25T16:23:34.557Z,9.07
2023-05-25T16:26:01.030Z,5.70
2023-05-25T16:28:28.687Z,5.07
2023-05-25T16:30:55.225Z,6.28
2023-05-25T16:33:21.652Z,6.70
2023-05-25T16:35:48.390Z,6.18
2023-05-25T16:38:14.888Z,4.90
2023-05-25T16:40:41.376Z,5.30
2023-05-25T16:43:07.836Z,5.05
2023-05-25T16:45:34.371Z,5.38
2023-05-25T16:48:00.866Z,5.20
2023-05-25T16:50:27.426Z,5.25
2023-05-25T16:52:53.956Z,4.82
2023-05-25T16:55:21.292Z,5.07
2023-05-25T16:57:47.893Z,5.65
2023-05-25T17:00:14.943Z,5.57
2023-05-25T17:02:41.540Z,4.80
2023-05-25T17:05:08.564Z,4.75
2023-05-25T17:07:35.870Z,5.53
2023-05-25T17:10:02.420Z,11.95
2023-05-25T17:12:28.937Z,7.18
2023-05-25T17:14:55.383Z,6.72
2023-05-25T17:17:21.886Z,9.63
2023-05-25T17:19:48.464Z,6.63
2023-05-25T17:22:14.932Z,7.28
2023-05-25T17:24:41.443Z,5.32
2023-05-25T17:27:07.946Z,5.47
2023-05-25T17:29:34.432Z,5.50
2023-05-25T17:32:00.909Z,4.53
2023-05-25T17:34:27.477Z,4.95
2023-05-25T17:36:53.965Z,4.70
2023-05-25T17:39:20.529Z,5.30
2023-05-25T17:41:47.625Z,4.60
2023-05-25T17:44:14.108Z,4.90
2023-05-25T17:46:40.624Z,5.03
2023-05-25T17:49:07.147Z,4.63
2023-05-25T17:51:33.652Z,4.85
2023-05-25T17:54:00.143Z,5.00
2023-05-25T17:56:27.122Z,5.18
2023-05-25T17:58:53.684Z,4.72
2023-05-25T18:01:20.338Z,4.82
2023-05-25T18:03:47.022Z,5.28
2023-05-25T18:06:13.526Z,4.90
2023-05-25T18:08:39.996Z,5.35
2023-05-25T18:11:06.513Z,5.05
2023-05-25T18:13:32.955Z,5.30
2023-05-25T18:15:59.701Z,4.90
2023-05-25T18:18:26.215Z,5.63
2023-05-25T18:20:52.722Z,5.45
2023-05-25T18:23:19.196Z,5.47
2023-05-25T18:25:46.137Z,5.43
2023-05-25T18:28:14.983Z,5.43
2023-05-25T18:30:45.356Z,5.68
2023-05-25T18:33:11.937Z,5.28
2023-05-25T18:35:38.578Z,5.70
2023-05-25T18:38:06.564Z,5.38
2023-05-25T18:40:33.040Z,5.43
2023-05-25T18:42:59.536Z,5.63
2023-05-25T18:45:26.106Z,5.75
2023-05-25T18:47:52.763Z,5.30
2023-05-25T18:50:20.030Z,5.68
2023-05-25T18:52:50.642Z,5.82
2023-05-25T18:55:18.367Z,5.20
2023-05-25T18:57:44.856Z,5.60
2023-05-25T19:00:12.016Z,5.22
2023-05-25T19:02:38.815Z,5.63
2023-05-25T19:05:05.831Z,5.80
2023-05-25T19:07:32.582Z,5.55
2023-05-25T19:09:59.051Z,5.75
2023-05-25T19:12:25.672Z,6.10
2023-05-25T19:14:52.094Z,5.35
2023-05-25T19:17:18.551Z,5.78
2023-05-25T19:19:45.006Z,6.10
2023-05-25T19:22:11.519Z,5.80
2023-05-25T19:24:42.367Z,6.45
2023-05-25T19:27:09.324Z,6.03
2023-05-25T19:29:35.758Z,6.03
2023-05-25T19:32:02.287Z,5.97
2023-05-25T19:34:28.936Z,6.28
2023-05-25T19:37:10.253Z,6.18
2023-05-25T19:39:37.269Z,6.07
2023-05-25T19:42:03.917Z,6.53
2023-05-25T19:44:31.063Z,7.50
2023-05-25T19:46:57.890Z,6.78
2023-05-25T19:49:24.504Z,7.10
2023-05-25T19:51:51.439Z,6.93
2023-05-25T19:54:17.931Z,6.47
2023-05-25T19:56:44.435Z,7.13
2023-05-25T19:59:11.314Z,6.85
2023-05-25T20:01:37.844Z,6.25
2023-05-25T20:04:04.473Z,7.32
2023-05-25T20:06:31.466Z,6.78
2023-05-25T20:08:58.116Z,7.03
2023-05-25T20:11:24.602Z,7.30
2023-05-25T20:13:51.128Z,7.30
2023-05-25T20:16:17.638Z,7.10
2023-05-25T20:18:45.557Z,9.18
2023-05-25T20:21:12.027Z,8.45
2023-05-25T20:23:38.525Z,8.45
2023-05-25T20:26:05.046Z,8.40
2023-05-25T20:28:31.546Z,7.50
2023-05-25T20:30:58.004Z,5.90
2023-05-25T20:33:24.548Z,6.93
2023-05-25T20:35:51.229Z,7.13
2023-05-25T20:38:17.756Z,6.97
2023-05-25T20:40:44.282Z,6.22
2023-05-25T20:43:10.747Z,6.30
2023-05-25T20:45:38.565Z,6.47
2023-05-25T20:48:05.155Z,7.18
2023-05-25T20:50:31.781Z,5.95
2023-05-25T20:52:58.392Z,6.55
2023-05-25T20:55:25.801Z,6.30
2023-05-25T20:57:52.501Z,6.35
2023-05-25T21:00:19.231Z,6.28
2023-05-25T21:02:45.990Z,6.35
2023-05-25T21:05:12.576Z,6.22
2023-05-25T21:07:39.116Z,6.25
2023-05-25T21:10:06.141Z,6.35
2023-05-25T21:12:32.742Z,6.05
2023-05-25T21:14:59.243Z,6.55
2023-05-25T21:17:25.991Z,7.20
2023-05-25T21:19:52.593Z,6.60
2023-05-25T21:22:19.397Z,6.70
2023-05-25T21:24:46.021Z,6.03
2023-05-25T21:27:12.485Z,6.82
2023-05-25T21:29:38.978Z,5.82
2023-05-25T21:32:05.752Z,6.57
2023-05-25T21:34:32.235Z,7.13
2023-05-25T21:36:58.716Z,5.97
2023-05-25T21:39:25.319Z,6.60
2023-05-25T21:41:51.796Z,6.82
2023-05-25T21:44:18.432Z,6.63
2023-05-25T21:46:45.032Z,6.70
2023-05-25T21:49:11.635Z,6.72
2023-05-25T21:51:38.130Z,7.03
2023-05-25T21:54:04.693Z,6.05
2023-05-25T21:56:31.267Z,6.57
2023-05-25T21:58:57.841Z,6.38
2023-05-25T22:01:24.418Z,6.93
2023-05-25T22:03:51.174Z,6.70
2023-05-25T22:06:17.739Z,7.32
2023-05-25T22:08:44.299Z,6.90
2023-05-25T22:11:10.937Z,7.35
2023-05-25T22:13:37.494Z,7.82
2023-05-25T22:16:03.991Z,7.00
2023-05-25T22:18:30.611Z,6.97
2023-05-25T22:20:57.235Z,7.45
2023-05-25T22:23:23.756Z,7.90
2023-05-25T22:25:50.374Z,7.00
2023-05-25T22:28:17.001Z,7.63
2023-05-25T22:30:43.546Z,7.10
2023-05-25T22:33:10.217Z,6.80
2023-05-25T22:35:37.322Z,7.53
2023-05-25T22:38:03.826Z,7.03
2023-05-25T22:40:32.637Z,7.45
2023-05-25T22:42:59.080Z,7.28
2023-05-25T22:45:25.669Z,7.03
2023-05-25T22:47:52.199Z,7.13
2023-05-25T22:50:18.735Z,7.70
2023-05-25T22:52:45.433Z,6.63
2023-05-25T22:55:12.014Z,7.55
2023-05-25T22:57:39.251Z,6.70
2023-05-25T23:00:06.577Z,7.10
2023-05-25T23:02:33.209Z,7.68
2023-05-25T23:04:59.781Z,7.30
2023-05-25T23:07:26.257Z,7.63
2023-05-25T23:09:52.687Z,7.40
2023-05-25T23:12:19.188Z,7.90
2023-05-25T23:14:45.623Z,7.28
2023-05-25T23:17:12.090Z,7.97
2023-05-25T23:19:40.178Z,7.28
2023-05-25T23:22:06.648Z,7.45
2023-05-25T23:24:33.093Z,6.65
2023-05-25T23:26:59.598Z,7.10
2023-05-25T23:29:26.281Z,7.40
2023-05-25T23:31:52.940Z,6.88
2023-05-25T23:34:19.585Z,7.13
2023-05-25T23:36:46.074Z,7.25
2023-05-25T23:39:13.034Z,7.60
2023-05-25T23:41:39.591Z,7.68
2023-05-25T23:44:06.463Z,7.03
2023-05-25T23:46:33.002Z,7.72
2023-05-25T23:48:59.564Z,7.35
2023-05-25T23:51:26.105Z,7.05
2023-05-25T23:53:52.573Z,7.13
2023-05-25T23:56:19.116Z,7.07
2023-05-25T23:58:45.653Z,10.02
